»·PEaware :: FDX3171 KSLC-KBOI

FDX3171 :: KSLC-KBOI

FLIGHT INFORMATION

Flight Status: Arrived
Operator:
Federal Express
More flights by this operator :: More flights under this callsign
Pilot: David C. (16084)
Aircraft: BOEING 767-300
(B763)
More flights by this aircraft type
Origin: KSLC Salt Lake City Intl
United States
Destination: KBOI Boise Air Terminal/Gowen
United States
More flights between these airports :: More routes between these airports
Route: CGULL1 TWF BROPH SPUUD3
File this flight plan on PilotEdge
Remarks:
Altitude:
(Current/Filed)
28,000ft
Speed:
(Current/Filed)
481kts
Departed: 24-Dec-18 12:41 PM
Arrived: 24-Dec-18 01:31 PM
Distance/Time
Traveled:
252nm/0:49
Distance/Time
To Go:
Arrived

Flight Plot

Page will automatically refresh every two minutes.

Flight plan parsing failed; only flown route is shown


Map Options




Map Legend


Flown Route
Filed Route
Departure Airport
Arrival Airport
Navaid (VOR, NDB)
Fix

Horizontal Profiles

Position Reports

Time Latitude Longitude Heading Altitude Ground
Speed
24-Dec-18 11:37 40.805343 -111.983380 174 4238ft 0kts
24-Dec-18 11:37 40.805343 -111.983380 174 4238ft 0kts
24-Dec-18 11:39 40.805343 -111.983380 174 4238ft 0kts
24-Dec-18 11:39 40.805343 -111.983380 174 4238ft 0kts
24-Dec-18 11:40 40.805343 -111.983380 174 4238ft 0kts
24-Dec-18 11:41 40.805343 -111.983380 174 4238ft 0kts
24-Dec-18 11:43 40.805343 -111.983380 174 4238ft 0kts
24-Dec-18 11:43 40.805343 -111.983380 174 4238ft 0kts
24-Dec-18 11:44 40.805343 -111.983380 174 4238ft 0kts
24-Dec-18 11:45 40.805343 -111.983380 174 4238ft 0kts
24-Dec-18 11:46 40.805343 -111.983380 174 4238ft 0kts
24-Dec-18 11:47 40.805343 -111.983380 174 4238ft 0kts
24-Dec-18 11:48 40.805343 -111.983380 174 4238ft 0kts
24-Dec-18 11:49 40.805343 -111.983380 174 4238ft 0kts
24-Dec-18 11:50 40.805343 -111.983380 174 4238ft 0kts
24-Dec-18 11:51 40.805343 -111.983380 174 4238ft 0kts
24-Dec-18 11:52 40.805343 -111.983380 174 4238ft 0kts
24-Dec-18 11:53 40.805343 -111.983380 174 4238ft 0kts
24-Dec-18 11:54 40.805343 -111.983380 174 4238ft 0kts
24-Dec-18 11:55 40.805343 -111.983380 174 4238ft 0kts
24-Dec-18 11:56 40.805343 -111.983380 174 4238ft 0kts
24-Dec-18 11:57 40.805343 -111.983380 174 4238ft 0kts
24-Dec-18 11:58 40.805343 -111.983380 174 4238ft 0kts
24-Dec-18 11:59 40.805343 -111.983380 174 4238ft 0kts
24-Dec-18 12:00 40.805343 -111.983380 174 4238ft 0kts
24-Dec-18 12:01 40.805343 -111.983380 174 4238ft 0kts
24-Dec-18 12:02 40.805343 -111.983380 174 4238ft 0kts
24-Dec-18 12:03 40.805343 -111.983380 174 4238ft 0kts
24-Dec-18 12:04 40.805343 -111.983380 174 4238ft 0kts
24-Dec-18 12:05 40.805343 -111.983380 174 4238ft 0kts
24-Dec-18 12:06 40.805343 -111.983380 174 4238ft 0kts
24-Dec-18 12:07 40.805343 -111.983380 174 4238ft 0kts
24-Dec-18 12:08 40.805343 -111.983380 174 4238ft 0kts
24-Dec-18 12:09 40.805343 -111.983380 174 4238ft 0kts
24-Dec-18 12:10 40.805343 -111.983380 174 4238ft 0kts
24-Dec-18 12:11 40.805343 -111.983380 174 4238ft 0kts
24-Dec-18 12:12 40.805343 -111.983380 173 4238ft 0kts
24-Dec-18 12:13 40.805342 -111.983380 173 4238ft 0kts
24-Dec-18 12:14 40.805342 -111.983380 173 4238ft 0kts
24-Dec-18 12:15 40.805342 -111.983380 173 4238ft 0kts
24-Dec-18 12:16 40.805342 -111.983380 173 4238ft 0kts
24-Dec-18 12:17 40.805342 -111.983380 173 4238ft 0kts
24-Dec-18 12:18 40.805342 -111.983380 173 4238ft 0kts
24-Dec-18 12:19 40.805342 -111.983380 173 4238ft 0kts
24-Dec-18 12:20 40.805342 -111.983380 173 4238ft 0kts
24-Dec-18 12:21 40.805342 -111.983380 173 4238ft 0kts
24-Dec-18 12:22 40.805342 -111.983380 173 4238ft 0kts
24-Dec-18 12:23 40.805342 -111.983380 173 4238ft 0kts
24-Dec-18 12:24 40.805342 -111.983380 173 4238ft 0kts
24-Dec-18 12:25 40.805342 -111.983380 173 4238ft 0kts
24-Dec-18 12:26 40.805342 -111.983380 173 4238ft 0kts
24-Dec-18 12:27 40.805342 -111.983380 173 4238ft 0kts
24-Dec-18 12:28 40.805342 -111.983380 173 4238ft 0kts
24-Dec-18 12:29 40.805343 -111.983380 173 4238ft 0kts
24-Dec-18 12:30 40.805343 -111.983380 173 4238ft 0kts
24-Dec-18 12:31 40.805719 -111.983602 134 4238ft 2kts
24-Dec-18 12:32 40.805907 -111.984055 102 4238ft 0kts
24-Dec-18 12:33 40.805907 -111.984055 102 4238ft 0kts
24-Dec-18 12:34 40.805907 -111.984055 102 4238ft 0kts
24-Dec-18 12:35 40.805881 -111.983630 84 4238ft 7kts
24-Dec-18 12:36 40.807376 -111.979051 82 4238ft 0kts
24-Dec-18 12:37 40.807376 -111.979051 82 4238ft 0kts
24-Dec-18 12:38 40.807376 -111.979051 82 4238ft 0kts
24-Dec-18 12:39 40.807394 -111.977674 102 4238ft 19kts
24-Dec-18 12:40 40.784628 -111.974276 175 4328ft 177kts
24-Dec-18 12:41 40.731518 -111.991218 246 6364ft 223kts
24-Dec-18 12:42 40.749920 -112.058820 306 8398ft 227kts
24-Dec-18 12:43 40.797462 -112.125048 317 10435ft 260kts
24-Dec-18 12:44 40.854922 -112.188403 318 12499ft 297kts
24-Dec-18 12:45 40.919918 -112.259993 317 14508ft 308kts
24-Dec-18 12:46 40.986104 -112.333116 317 16502ft 314kts
24-Dec-18 12:47 41.053802 -112.408121 316 18490ft 323kts
24-Dec-18 12:48 41.128688 -112.475245 323 20669ft 337kts
24-Dec-18 12:49 41.206142 -112.546482 317 23250ft 345kts
24-Dec-18 12:50 41.282153 -112.626077 310 25583ft 351kts
24-Dec-18 12:51 41.347943 -112.722054 308 27722ft 359kts
24-Dec-18 12:52 41.418081 -112.825822 307 28181ft 406kts
24-Dec-18 12:53 41.497206 -112.946881 308 28172ft 455kts
24-Dec-18 12:54 41.579594 -113.073333 308 28164ft 454kts
24-Dec-18 12:55 41.659684 -113.196821 308 28127ft 453kts
24-Dec-18 12:56 41.740729 -113.322330 308 28110ft 453kts
24-Dec-18 12:57 41.821488 -113.447928 308 28108ft 453kts
24-Dec-18 12:58 41.902594 -113.574603 308 28107ft 453kts
24-Dec-18 12:59 41.982848 -113.700476 307 28115ft 453kts
24-Dec-18 13:00 42.063335 -113.827245 307 28113ft 452kts
24-Dec-18 13:01 42.142833 -113.953001 307 28115ft 453kts
24-Dec-18 13:02 42.222553 -114.079173 308 28114ft 444kts
24-Dec-18 13:03 42.301925 -114.205132 308 28112ft 445kts
24-Dec-18 13:04 42.380989 -114.331130 308 28110ft 444kts
24-Dec-18 13:05 42.457061 -114.452862 308 28088ft 426kts
24-Dec-18 13:06 42.532111 -114.572650 308 26744ft 415kts
24-Dec-18 13:07 42.604464 -114.688268 307 25195ft 407kts
24-Dec-18 13:08 42.676194 -114.803336 307 23754ft 401kts
24-Dec-18 13:09 42.748225 -114.914574 310 22286ft 393kts
24-Dec-18 13:10 42.822211 -115.020612 310 20841ft 387kts
24-Dec-18 13:11 42.895313 -115.125889 310 19356ft 384kts
24-Dec-18 13:12 42.967274 -115.230129 310 17924ft 376kts
24-Dec-18 13:13 43.037596 -115.332445 310 16527ft 366kts
24-Dec-18 13:14 43.105166 -115.431100 310 15203ft 359kts
24-Dec-18 13:15 43.172716 -115.529939 311 14163ft 349kts
24-Dec-18 13:16 43.233067 -115.618332 310 13976ft 296kts
24-Dec-18 13:17 43.282337 -115.702224 295 12939ft 283kts
24-Dec-18 13:18 43.318237 -115.797074 295 11890ft 280kts
24-Dec-18 13:19 43.353468 -115.891424 294 10874ft 279kts
24-Dec-18 13:20 43.388538 -115.985791 294 9919ft 274kts
24-Dec-18 13:21 43.422380 -116.077112 294 8784ft 250kts
24-Dec-18 13:22 43.450664 -116.153753 294 7600ft 228kts
24-Dec-18 13:23 43.477409 -116.229325 297 6775ft 206kts
24-Dec-18 13:24 43.502108 -116.301456 296 6663ft 207kts
24-Dec-18 13:25 43.527917 -116.371028 316 5909ft 190kts
24-Dec-18 13:26 43.573055 -116.379658 26 4522ft 167kts
24-Dec-18 13:27 43.597263 -116.331212 83 3466ft 146kts
24-Dec-18 13:28 43.582075 -116.277976 114 3486ft 153kts
24-Dec-18 13:29 43.565035 -116.227963 115 2883ft 109kts
24-Dec-18 13:30 43.562205 -116.216960 1 2882ft 1kts
24-Dec-18 13:32 43.564904 -116.217238 354 2882ft 8kts
24-Dec-18 13:33 43.567135 -116.215550 143 2882ft 10kts
24-Dec-18 13:34 43.567061 -116.215485 150 2882ft 0kts
24-Dec-18 13:35 43.567061 -116.215485 150 2882ft 0kts

Navigation Log

Ident Type
Flight plan parsing failed, navigation log unavailable